createdAt,value
2019-01-30T00:01:17.640Z,-3.60
2019-01-30T00:03:44.905Z,-3.50
2019-01-30T00:06:12.309Z,-3.40
2019-01-30T00:08:39.753Z,-3.50
2019-01-30T00:11:06.969Z,-3.50
2019-01-30T00:13:34.323Z,-3.60
2019-01-30T00:16:01.656Z,-3.70
2019-01-30T00:18:29.000Z,-3.90
2019-01-30T00:20:56.359Z,-3.90
2019-01-30T00:23:23.620Z,-3.80
2019-01-30T00:25:50.964Z,-3.70
2019-01-30T00:28:18.350Z,-3.80
2019-01-30T00:30:45.569Z,-4.00
2019-01-30T00:33:12.901Z,-4.00
2019-01-30T00:35:40.112Z,-3.90
2019-01-30T00:38:07.395Z,-3.70
2019-01-30T00:40:34.703Z,-3.50
2019-01-30T00:43:01.940Z,-3.30
2019-01-30T00:45:29.280Z,-3.20
2019-01-30T00:47:56.625Z,-3.10
2019-01-30T00:50:24.010Z,-3.40
2019-01-30T00:52:51.455Z,-3.80
2019-01-30T00:55:18.881Z,-3.90
2019-01-30T00:57:46.116Z,-4.00
2019-01-30T01:00:16.135Z,-4.10
2019-01-30T01:02:43.381Z,-4.00
2019-01-30T01:05:10.796Z,-3.90
2019-01-30T01:07:38.261Z,-3.80
2019-01-30T01:10:07.912Z,-3.70
2019-01-30T01:12:35.351Z,-3.60
2019-01-30T01:15:04.364Z,-3.60
2019-01-30T01:17:31.734Z,-3.50
2019-01-30T01:19:59.087Z,-3.30
2019-01-30T01:22:26.490Z,-3.30
2019-01-30T01:24:53.672Z,-3.40
2019-01-30T01:27:20.892Z,-3.50
2019-01-30T01:29:48.172Z,-3.40
2019-01-30T01:32:15.556Z,-3.40
2019-01-30T01:34:42.866Z,-3.30
2019-01-30T01:37:10.084Z,-3.20
2019-01-30T01:39:37.334Z,-3.30
2019-01-30T01:42:04.631Z,-3.30
2019-01-30T01:44:31.843Z,-3.20
2019-01-30T01:46:59.415Z,-3.30
2019-01-30T01:49:26.669Z,-3.30
2019-01-30T01:51:53.998Z,-3.10
2019-01-30T01:54:21.247Z,-2.80
2019-01-30T01:56:48.356Z,-2.90
2019-01-30T01:59:15.807Z,-3.10
2019-01-30T02:01:43.114Z,-3.20
2019-01-30T02:04:10.337Z,-3.10
2019-01-30T02:06:37.682Z,-3.10
2019-01-30T02:09:08.783Z,-3.00
2019-01-30T02:11:36.111Z,-3.00
2019-01-30T02:14:04.140Z,-2.90
2019-01-30T02:16:31.579Z,-3.00
2019-01-30T02:18:58.902Z,-2.90
2019-01-30T02:21:26.151Z,-3.00
2019-01-30T02:23:53.384Z,-3.10
2019-01-30T02:26:20.696Z,-3.20
2019-01-30T02:28:47.933Z,-3.30
2019-01-30T02:31:15.150Z,-3.40
2019-01-30T02:33:42.588Z,-3.40
2019-01-30T02:36:09.875Z,-3.50
2019-01-30T02:38:37.224Z,-3.40
2019-01-30T02:41:04.807Z,-3.20
2019-01-30T02:43:32.119Z,-3.00
2019-01-30T02:45:59.489Z,-2.80
2019-01-30T02:48:26.699Z,-2.80
2019-01-30T02:50:54.066Z,-2.70
2019-01-30T02:53:21.374Z,-2.80
2019-01-30T02:55:48.581Z,-2.80
2019-01-30T02:58:15.944Z,-3.00
2019-01-30T03:00:43.404Z,-3.00
2019-01-30T03:03:10.721Z,-2.90
2019-01-30T03:05:38.059Z,-2.90
2019-01-30T03:08:05.291Z,-2.70
2019-01-30T03:10:32.620Z,-2.60
2019-01-30T03:12:59.948Z,-2.70
2019-01-30T03:15:27.407Z,-2.80
2019-01-30T03:17:54.869Z,-2.80
2019-01-30T03:20:23.695Z,-2.60
2019-01-30T03:22:50.943Z,-2.60
2019-01-30T03:25:19.028Z,-2.40
2019-01-30T03:27:46.280Z,-2.30
2019-01-30T03:30:18.877Z,-2.40
2019-01-30T03:32:46.218Z,-2.30
2019-01-30T03:35:13.662Z,-2.40
2019-01-30T03:37:41.096Z,-2.40
2019-01-30T03:40:11.393Z,-2.60
2019-01-30T03:42:38.737Z,-2.80
2019-01-30T03:45:06.779Z,-2.90
2019-01-30T03:47:34.028Z,-2.70
2019-01-30T03:50:01.267Z,-2.60
2019-01-30T03:52:28.684Z,-2.40
2019-01-30T03:54:56.033Z,-2.40
2019-01-30T03:57:23.239Z,-2.20
2019-01-30T03:59:50.475Z,-2.00
2019-01-30T04:02:17.833Z,-2.10
2019-01-30T04:04:45.407Z,-2.20
2019-01-30T04:07:12.686Z,-2.40
2019-01-30T04:09:39.911Z,-2.50
2019-01-30T04:12:07.254Z,-2.70
2019-01-30T04:14:34.560Z,-2.70
2019-01-30T04:17:01.924Z,-2.80
2019-01-30T04:19:29.371Z,-2.90
2019-01-30T04:21:56.620Z,-2.90
2019-01-30T04:24:24.090Z,-2.80
2019-01-30T04:26:51.408Z,-2.80
2019-01-30T04:29:18.759Z,-2.90
2019-01-30T04:31:45.972Z,-2.90
2019-01-30T04:34:13.294Z,-2.90
2019-01-30T04:36:40.671Z,-2.90
2019-01-30T04:39:07.960Z,-2.90
2019-01-30T04:41:35.299Z,-2.90
2019-01-30T04:44:02.553Z,-2.80
2019-01-30T04:46:29.892Z,-2.80
2019-01-30T04:48:57.257Z,-2.70
2019-01-30T04:51:24.568Z,-2.70
2019-01-30T04:53:51.789Z,-2.70
2019-01-30T04:56:19.135Z,-2.60
2019-01-30T04:58:46.488Z,-2.40
2019-01-30T05:01:13.706Z,-2.50
2019-01-30T05:03:41.010Z,-2.50
2019-01-30T05:06:08.272Z,-2.60
2019-01-30T05:08:35.648Z,-2.60
2019-01-30T05:11:02.931Z,-2.50
2019-01-30T05:13:30.172Z,-2.30
2019-01-30T05:15:57.522Z,-2.10
2019-01-30T05:18:24.944Z,-1.90
2019-01-30T05:20:52.287Z,-1.70
2019-01-30T05:23:19.716Z,-1.90
2019-01-30T05:25:47.051Z,-2.30
2019-01-30T05:28:14.289Z,-2.40
2019-01-30T05:30:41.756Z,-2.40
2019-01-30T05:33:09.081Z,-2.30
2019-01-30T05:35:36.392Z,-2.40
2019-01-30T05:38:03.880Z,-2.40
2019-01-30T05:40:31.195Z,-2.20
2019-01-30T05:42:58.407Z,-2.10
2019-01-30T05:45:25.737Z,-2.10
2019-01-30T05:47:53.081Z,-2.20
2019-01-30T05:50:20.461Z,-2.20
2019-01-30T05:52:47.887Z,-2.20
2019-01-30T05:55:15.875Z,-2.10
2019-01-30T05:57:43.192Z,-2.00
2019-01-30T06:00:30.684Z,-1.90
2019-01-30T06:02:57.996Z,-2.00
2019-01-30T06:05:25.408Z,-2.10
2019-01-30T06:07:52.739Z,-1.90
2019-01-30T06:10:20.021Z,-1.80
2019-01-30T06:12:47.427Z,-1.90
2019-01-30T06:15:14.958Z,-2.00
2019-01-30T06:17:42.284Z,-2.10
2019-01-30T06:20:12.940Z,-2.00
2019-01-30T06:22:40.475Z,-1.80
2019-01-30T06:25:08.165Z,-1.70
2019-01-30T06:27:35.460Z,-1.60
2019-01-30T06:30:03.724Z,-1.60
2019-01-30T06:32:31.043Z,-1.50
2019-01-30T06:34:58.274Z,-1.80
2019-01-30T06:37:25.530Z,-1.80
2019-01-30T06:39:52.838Z,-1.70
2019-01-30T06:42:20.200Z,-1.60
2019-01-30T06:44:47.529Z,-1.80
2019-01-30T06:47:14.897Z,-1.90
2019-01-30T06:49:42.254Z,-2.00
2019-01-30T06:52:09.664Z,-2.10
2019-01-30T06:54:36.964Z,-2.10
2019-01-30T06:57:04.197Z,-1.90
2019-01-30T06:59:31.540Z,-1.90
2019-01-30T07:01:58.831Z,-1.90
2019-01-30T07:04:26.073Z,-1.90
2019-01-30T07:06:53.279Z,-1.80
2019-01-30T07:09:20.614Z,-1.70
2019-01-30T07:11:47.928Z,-1.60
2019-01-30T07:14:15.255Z,-1.70
2019-01-30T07:16:42.492Z,-1.70
2019-01-30T07:19:09.744Z,-1.80
2019-01-30T07:21:37.083Z,-2.00
2019-01-30T07:24:04.450Z,-2.10
2019-01-30T07:26:31.828Z,-2.10
2019-01-30T07:28:59.133Z,-2.10
2019-01-30T07:31:26.419Z,-2.10
2019-01-30T07:33:53.670Z,-2.00
2019-01-30T07:36:21.012Z,-1.90
2019-01-30T07:38:48.139Z,-1.70
2019-01-30T07:41:15.365Z,-1.60
2019-01-30T07:43:42.474Z,-1.40
2019-01-30T07:46:09.812Z,-1.20
2019-01-30T07:48:37.164Z,-1.40
2019-01-30T07:51:04.396Z,-1.60
2019-01-30T07:53:31.787Z,-1.70
2019-01-30T07:55:59.823Z,-1.60
2019-01-30T07:58:27.127Z,-1.60
2019-01-30T08:00:54.447Z,-1.70
2019-01-30T08:03:21.675Z,-1.90
2019-01-30T08:05:48.910Z,-2.00
2019-01-30T08:08:16.145Z,-2.00
2019-01-30T08:10:43.347Z,-2.10
2019-01-30T08:13:10.680Z,-2.00
2019-01-30T08:15:37.892Z,-1.90
2019-01-30T08:18:05.242Z,-1.50
2019-01-30T08:20:32.880Z,-1.30
2019-01-30T08:23:00.109Z,-1.30
2019-01-30T08:25:27.688Z,-1.30
2019-01-30T08:27:55.520Z,-1.20
2019-01-30T08:30:28.019Z,-1.30
2019-01-30T08:33:04.266Z,-1.20
2019-01-30T08:35:26.050Z,-1.30
2019-01-30T08:37:53.287Z,-1.40
2019-01-30T08:40:20.718Z,-1.40
2019-01-30T08:42:48.036Z,-1.50
2019-01-30T08:45:17.859Z,-1.50
2019-01-30T08:47:45.200Z,-1.50
2019-01-30T08:50:12.969Z,-1.60
2019-01-30T08:52:40.233Z,-1.60
2019-01-30T08:55:08.231Z,-1.70
2019-01-30T08:57:35.687Z,-1.60
2019-01-30T09:00:05.168Z,-1.50
2019-01-30T09:02:32.410Z,-1.40
2019-01-30T09:04:59.724Z,-1.40
2019-01-30T09:07:26.942Z,-1.50
2019-01-30T09:09:54.294Z,-1.40
2019-01-30T09:12:21.723Z,-1.40
2019-01-30T09:14:48.917Z,-1.30
2019-01-30T09:17:16.245Z,-1.30
2019-01-30T09:19:43.673Z,-1.30
2019-01-30T09:22:11.013Z,-1.30
2019-01-30T09:24:38.312Z,-1.30
2019-01-30T09:27:05.639Z,-1.30
2019-01-30T09:29:32.948Z,-1.30
2019-01-30T09:32:00.183Z,-1.30
2019-01-30T09:34:27.530Z,-1.30
2019-01-30T09:36:54.831Z,-1.30
2019-01-30T09:39:22.097Z,-1.30
2019-01-30T09:41:49.362Z,-1.30
2019-01-30T09:44:16.670Z,-1.30
2019-01-30T09:46:43.903Z,-1.30
2019-01-30T09:49:11.228Z,-1.20
2019-01-30T09:51:38.431Z,-1.10
2019-01-30T09:54:05.833Z,-1.00
2019-01-30T09:56:33.108Z,-1.00
2019-01-30T09:59:00.527Z,-0.90
2019-01-30T10:01:27.777Z,-0.90
2019-01-30T10:03:55.091Z,-0.80
2019-01-30T10:06:22.548Z,-0.60
2019-01-30T10:08:49.857Z,-0.40
2019-01-30T10:11:17.106Z,-0.30
2019-01-30T10:13:44.407Z,-0.20
2019-01-30T10:16:11.683Z,0.00
2019-01-30T10:18:38.963Z,0.30
2019-01-30T10:21:06.428Z,0.40
2019-01-30T10:23:33.835Z,0.40
2019-01-30T10:26:01.146Z,0.20
2019-01-30T10:28:28.476Z,0.10
2019-01-30T10:30:55.692Z,0.10
2019-01-30T10:33:23.034Z,0.00
2019-01-30T10:35:50.384Z,0.10
2019-01-30T10:38:17.775Z,0.20
2019-01-30T10:40:45.198Z,0.10
2019-01-30T10:43:12.972Z,0.00
2019-01-30T10:45:40.391Z,0.20
2019-01-30T10:48:07.605Z,0.00
2019-01-30T10:50:35.023Z,0.00
2019-01-30T10:53:02.341Z,0.10
2019-01-30T10:55:30.556Z,-0.10
2019-01-30T10:57:59.553Z,-0.20
2019-01-30T11:00:29.655Z,-0.20
2019-01-30T11:02:57.116Z,-0.20
2019-01-30T11:05:24.319Z,-0.20
2019-01-30T11:07:51.524Z,-0.10
2019-01-30T11:10:18.757Z,0.10
2019-01-30T11:12:45.965Z,0.10
2019-01-30T11:15:15.175Z,0.00
2019-01-30T11:17:42.381Z,-0.10
2019-01-30T11:20:11.017Z,-0.10
2019-01-30T11:22:38.336Z,-0.10
2019-01-30T11:25:09.119Z,-0.10
2019-01-30T11:27:36.353Z,0.00
2019-01-30T11:30:05.105Z,0.10
2019-01-30T11:32:32.440Z,0.20
2019-01-30T11:34:59.641Z,0.50
2019-01-30T11:37:26.971Z,0.50
2019-01-30T11:39:54.211Z,0.40
2019-01-30T11:42:21.528Z,0.30
2019-01-30T11:44:48.881Z,0.40
2019-01-30T11:47:16.216Z,0.50
2019-01-30T11:49:43.525Z,0.60
2019-01-30T11:52:10.800Z,0.60
2019-01-30T11:54:38.794Z,0.40
2019-01-30T11:57:06.544Z,0.30
2019-01-30T11:59:33.827Z,0.20
2019-01-30T12:02:01.117Z,0.10
2019-01-30T12:04:28.429Z,0.00
2019-01-30T12:06:55.777Z,0.00
2019-01-30T12:09:22.976Z,0.00
2019-01-30T12:11:50.360Z,0.00
2019-01-30T12:14:17.655Z,0.00
2019-01-30T12:16:45.071Z,0.00
2019-01-30T12:19:12.394Z,-0.10
2019-01-30T12:21:39.703Z,-0.10
2019-01-30T12:24:07.133Z,-0.10
2019-01-30T12:26:34.447Z,-0.10
2019-01-30T12:29:01.677Z,-0.10
2019-01-30T12:31:29.118Z,-0.10
2019-01-30T12:33:59.047Z,-0.20
2019-01-30T12:36:25.729Z,-0.40
2019-01-30T12:38:52.972Z,-0.50
2019-01-30T12:41:20.312Z,-0.50
2019-01-30T12:43:47.647Z,-0.60
2019-01-30T12:46:14.989Z,-0.50
2019-01-30T12:48:42.232Z,-0.60
2019-01-30T12:51:09.573Z,-0.70
2019-01-30T12:53:36.847Z,-0.80
2019-01-30T12:56:04.201Z,-0.80
2019-01-30T12:58:31.520Z,-0.80
2019-01-30T13:00:58.867Z,-0.80
2019-01-30T13:03:26.200Z,-0.80
2019-01-30T13:05:53.404Z,-0.90
2019-01-30T13:08:20.763Z,-1.00
2019-01-30T13:10:47.983Z,-1.00
2019-01-30T13:13:15.200Z,-1.00
2019-01-30T13:15:42.431Z,-0.90
2019-01-30T13:18:17.908Z,-1.00
2019-01-30T13:20:38.911Z,-0.90
2019-01-30T13:23:06.147Z,-0.90
2019-01-30T13:25:33.563Z,-0.90
2019-01-30T13:28:00.893Z,-0.90
2019-01-30T13:30:33.426Z,-1.00
2019-01-30T13:33:01.273Z,-1.00
2019-01-30T13:35:28.587Z,-1.00
2019-01-30T13:37:55.829Z,-1.00
2019-01-30T13:40:25.828Z,-0.90
2019-01-30T13:42:53.069Z,-0.90
2019-01-30T13:45:20.413Z,-1.00
2019-01-30T13:47:47.744Z,-1.00
2019-01-30T13:50:17.771Z,-0.90
2019-01-30T13:52:45.071Z,-1.10
2019-01-30T13:55:12.410Z,-1.00
2019-01-30T13:57:39.741Z,-0.80
2019-01-30T14:00:14.469Z,-0.80
2019-01-30T14:02:41.772Z,-0.70
2019-01-30T14:05:09.192Z,-0.60
2019-01-30T14:07:36.564Z,-0.60
2019-01-30T14:10:04.686Z,-0.50
2019-01-30T14:12:32.032Z,-0.60
2019-01-30T14:14:59.396Z,-0.60
2019-01-30T14:17:26.671Z,-0.60
2019-01-30T14:19:54.264Z,-0.60
2019-01-30T14:22:21.601Z,-0.60
2019-01-30T14:24:48.936Z,-0.70
2019-01-30T14:27:16.259Z,-0.70
2019-01-30T14:29:43.647Z,-0.70
2019-01-30T14:32:10.903Z,-0.60
2019-01-30T14:34:38.244Z,-0.60
2019-01-30T14:37:05.541Z,-0.60
2019-01-30T14:39:32.972Z,-0.50
2019-01-30T14:42:00.269Z,-0.60
2019-01-30T14:44:27.800Z,-0.60
2019-01-30T14:46:55.086Z,-0.60
2019-01-30T14:49:22.301Z,-0.60
2019-01-30T14:51:49.613Z,-0.70
2019-01-30T14:54:16.901Z,-0.70
2019-01-30T14:56:44.244Z,-0.80
2019-01-30T14:59:11.554Z,-0.80
2019-01-30T15:01:38.888Z,-0.80
2019-01-30T15:04:06.285Z,-0.80
2019-01-30T15:06:33.710Z,-0.80
2019-01-30T15:09:01.020Z,-0.80
2019-01-30T15:11:28.425Z,-0.80
2019-01-30T15:13:55.689Z,-0.80
2019-01-30T15:16:22.990Z,-0.80
2019-01-30T15:18:50.427Z,-0.80
2019-01-30T15:21:17.792Z,-0.70
2019-01-30T15:23:45.201Z,-0.80
2019-01-30T15:26:12.544Z,-0.80
2019-01-30T15:28:39.778Z,-0.80
2019-01-30T15:31:07.116Z,-0.90
2019-01-30T15:33:34.341Z,-0.80
2019-01-30T15:36:01.690Z,-0.90
2019-01-30T15:38:29.203Z,-0.90
2019-01-30T15:40:56.500Z,-0.90
2019-01-30T15:43:23.792Z,-0.90
2019-01-30T15:45:51.043Z,-1.10
2019-01-30T15:48:18.322Z,-1.30
2019-01-30T15:50:45.559Z,-1.40
2019-01-30T15:53:15.428Z,-1.60
2019-01-30T15:55:42.792Z,-1.80
2019-01-30T15:58:10.807Z,-1.90
2019-01-30T16:00:49.731Z,-2.10
2019-01-30T16:03:17.063Z,-2.20
2019-01-30T16:05:45.364Z,-2.20
2019-01-30T16:08:12.773Z,-2.30
2019-01-30T16:10:40.012Z,-2.30
2019-01-30T16:13:07.346Z,-2.30
2019-01-30T16:15:37.717Z,-2.20
2019-01-30T16:18:05.632Z,-2.20
2019-01-30T16:20:32.976Z,-2.20
2019-01-30T16:23:00.216Z,-2.10
2019-01-30T16:25:27.699Z,-2.00
2019-01-30T16:27:55.142Z,-2.00
2019-01-30T16:30:23.108Z,-1.90
2019-01-30T16:32:50.428Z,-1.90
2019-01-30T16:35:26.023Z,-1.90
2019-01-30T16:37:53.371Z,-1.90
2019-01-30T16:40:20.797Z,-1.90
2019-01-30T16:42:48.243Z,-1.90
2019-01-30T16:45:17.503Z,-1.90
2019-01-30T16:47:44.738Z,-1.90
2019-01-30T16:50:13.282Z,-1.90
2019-01-30T16:52:40.699Z,-1.90
2019-01-30T16:55:08.807Z,-2.00
2019-01-30T16:57:36.271Z,-2.00
2019-01-30T17:00:06.188Z,-2.00
2019-01-30T17:02:33.450Z,-2.00
2019-01-30T17:05:00.760Z,-2.00
2019-01-30T17:07:28.223Z,-2.10
2019-01-30T17:09:55.536Z,-2.10
2019-01-30T17:12:22.994Z,-2.10
2019-01-30T17:14:50.439Z,-2.20
2019-01-30T17:17:17.671Z,-2.10
2019-01-30T17:19:44.996Z,-2.10
2019-01-30T17:22:12.441Z,-2.10
2019-01-30T17:24:39.784Z,-2.10
2019-01-30T17:27:07.104Z,-2.00
2019-01-30T17:29:34.549Z,-2.00
2019-01-30T17:32:01.906Z,-1.90
2019-01-30T17:34:29.216Z,-1.90
2019-01-30T17:36:56.461Z,-1.90
2019-01-30T17:39:23.924Z,-1.90
2019-01-30T17:41:51.296Z,-1.90
2019-01-30T17:44:19.512Z,-1.80
2019-01-30T17:46:46.963Z,-1.80
2019-01-30T17:49:14.269Z,-1.90
2019-01-30T17:51:42.993Z,-1.80
2019-01-30T17:54:10.476Z,-1.80
2019-01-30T17:56:37.717Z,-1.80
2019-01-30T17:59:05.123Z,-1.80
2019-01-30T18:01:32.780Z,-1.80
2019-01-30T18:04:00.114Z,-1.80
2019-01-30T18:06:30.056Z,-1.80
2019-01-30T18:08:56.615Z,-1.80
2019-01-30T18:11:23.926Z,-1.80
2019-01-30T18:13:51.309Z,-1.80
2019-01-30T18:16:18.751Z,-1.70
2019-01-30T18:18:46.163Z,-1.70
2019-01-30T18:21:13.394Z,-1.80
2019-01-30T18:23:40.612Z,-1.90
2019-01-30T18:26:07.946Z,-1.80
2019-01-30T18:28:35.169Z,-1.80
2019-01-30T18:31:02.531Z,-1.90
2019-01-30T18:33:29.837Z,-1.80
2019-01-30T18:35:57.344Z,-1.90
2019-01-30T18:38:24.661Z,-1.90
2019-01-30T18:40:51.997Z,-1.80
2019-01-30T18:43:19.429Z,-1.80
2019-01-30T18:45:46.772Z,-1.70
2019-01-30T18:48:14.200Z,-1.80
2019-01-30T18:50:41.587Z,-1.80
2019-01-30T18:53:08.801Z,-1.70
2019-01-30T18:55:36.204Z,-1.70
2019-01-30T18:58:03.966Z,-1.70
2019-01-30T19:00:49.232Z,-1.70
2019-01-30T19:03:18.060Z,-1.70
2019-01-30T19:05:45.652Z,-1.70
2019-01-30T19:08:12.977Z,-1.70
2019-01-30T19:10:40.335Z,-1.70
2019-01-30T19:13:07.543Z,-1.70
2019-01-30T19:15:34.911Z,-1.70
2019-01-30T19:18:02.223Z,-1.70
2019-01-30T19:20:32.576Z,-1.70
2019-01-30T19:22:59.932Z,-1.60
2019-01-30T19:25:27.447Z,-1.60
2019-01-30T19:27:56.120Z,-1.60
2019-01-30T19:30:25.724Z,-1.70
2019-01-30T19:32:53.066Z,-1.70
2019-01-30T19:35:20.269Z,-1.70
2019-01-30T19:37:47.581Z,-1.70
2019-01-30T19:40:15.171Z,-1.70
2019-01-30T19:42:42.504Z,-1.70
2019-01-30T19:45:11.339Z,-1.60
2019-01-30T19:47:38.585Z,-1.60
2019-01-30T19:50:09.808Z,-1.60
2019-01-30T19:52:37.064Z,-1.60
2019-01-30T19:55:04.936Z,-1.60
2019-01-30T19:57:32.269Z,-1.60
2019-01-30T19:59:59.607Z,-1.60
2019-01-30T20:02:26.916Z,-1.60
2019-01-30T20:04:54.173Z,-1.70
2019-01-30T20:07:21.507Z,-1.70
2019-01-30T20:09:48.639Z,-1.70
2019-01-30T20:12:15.992Z,-1.70
2019-01-30T20:14:43.282Z,-1.70
2019-01-30T20:17:10.707Z,-1.70
2019-01-30T20:19:38.064Z,-1.70
2019-01-30T20:22:05.360Z,-1.70
2019-01-30T20:24:32.671Z,-1.70
2019-01-30T20:27:00.000Z,-1.70
2019-01-30T20:29:27.325Z,-1.70
2019-01-30T20:31:54.648Z,-1.70
2019-01-30T20:34:22.095Z,-1.70
2019-01-30T20:36:49.420Z,-1.80
2019-01-30T20:39:16.706Z,-1.80
2019-01-30T20:41:43.830Z,-1.80
2019-01-30T20:44:11.064Z,-1.80
2019-01-30T20:46:38.360Z,-1.90
2019-01-30T20:49:05.628Z,-1.90
2019-01-30T20:51:32.980Z,-1.90
2019-01-30T20:54:00.729Z,-1.80
2019-01-30T20:56:28.140Z,-1.80
2019-01-30T20:58:55.388Z,-1.80
2019-01-30T21:01:22.614Z,-1.80
2019-01-30T21:03:49.947Z,-1.80
2019-01-30T21:06:17.247Z,-1.80
2019-01-30T21:08:44.589Z,-1.80
2019-01-30T21:11:11.928Z,-1.90
2019-01-30T21:13:39.224Z,-1.80
2019-01-30T21:16:06.591Z,-1.90
2019-01-30T21:18:33.804Z,-1.90
2019-01-30T21:21:01.095Z,-1.90
2019-01-30T21:23:28.312Z,-1.80
2019-01-30T21:25:55.530Z,-1.80
2019-01-30T21:28:22.780Z,-1.90
2019-01-30T21:30:50.097Z,-1.90
2019-01-30T21:33:17.472Z,-1.90
2019-01-30T21:35:44.675Z,-1.90
2019-01-30T21:38:12.012Z,-2.00
2019-01-30T21:40:39.260Z,-2.00
2019-01-30T21:43:06.559Z,-1.90
2019-01-30T21:45:33.923Z,-2.00
2019-01-30T21:48:01.228Z,-2.00
2019-01-30T21:50:28.524Z,-2.00
2019-01-30T21:52:55.892Z,-2.00
2019-01-30T21:55:23.600Z,-2.00
2019-01-30T21:57:50.926Z,-2.00
2019-01-30T22:00:20.138Z,-2.00
2019-01-30T22:02:47.372Z,-2.00
2019-01-30T22:05:15.372Z,-2.00
2019-01-30T22:07:42.659Z,-1.90
2019-01-30T22:10:12.555Z,-2.00
2019-01-30T22:12:39.750Z,-2.00
2019-01-30T22:15:08.718Z,-2.00
2019-01-30T22:17:35.977Z,-2.10
2019-01-30T22:20:04.996Z,-2.00
2019-01-30T22:22:32.297Z,-2.00
2019-01-30T22:24:59.653Z,-2.00
2019-01-30T22:27:26.992Z,-2.00
2019-01-30T22:29:54.363Z,-2.10
2019-01-30T22:32:21.580Z,-2.00
2019-01-30T22:34:48.993Z,-2.00
2019-01-30T22:37:16.344Z,-2.00
2019-01-30T22:39:43.645Z,-2.00
2019-01-30T22:42:10.879Z,-2.00
2019-01-30T22:44:38.200Z,-2.00
2019-01-30T22:47:05.699Z,-2.00
2019-01-30T22:49:32.903Z,-2.00
2019-01-30T22:52:00.627Z,-2.00
2019-01-30T22:54:27.959Z,-2.00
2019-01-30T22:56:55.171Z,-2.10
2019-01-30T22:59:22.475Z,-2.00
2019-01-30T23:01:52.723Z,-2.10
2019-01-30T23:05:05.324Z,-2.10
2019-01-30T23:07:37.794Z,-2.10
2019-01-30T23:10:56.118Z,-2.10
2019-01-30T23:13:48.540Z,-2.10
2019-01-30T23:16:54.026Z,-2.00
2019-01-30T23:19:30.464Z,-2.00
2019-01-30T23:22:11.868Z,-2.00
2019-01-30T23:25:17.295Z,-2.00
2019-01-30T23:27:57.454Z,-2.00
2019-01-30T23:30:59.497Z,-2.00
2019-01-30T23:34:02.047Z,-2.00
2019-01-30T23:37:17.358Z,-2.10
2019-01-30T23:40:11.211Z,-2.10
2019-01-30T23:42:55.123Z,-2.10
2019-01-30T23:46:00.260Z,-2.10
2019-01-30T23:49:00.835Z,-2.10
2019-01-30T23:51:47.740Z,-2.10
2019-01-30T23:55:09.247Z,-2.00
2019-01-30T23:58:15.271Z,-2.00
